WetterOnline ( http://www.wetteronline.de )

Wetter aktuell Malsch

Aktuelles Wetter: Rheinstetten (116m)

6-stündlich | Neueste Meldungen
Ortszeit Temperatur Wetter
So, 23.09. 20:00 16.3° C Regen
So, 23.09. 14:00 22.3° C bewölkt
So, 23.09. 8:00 16.2° C Regen
So, 23.09. 2:00 12.7° C leichter Regen
Sa, 22.09. 20:00 16.3° C bedeckt
Sa, 22.09. 14:00 18.8° C wolkig
Sa, 22.09. 8:00 10.3° C wolkig
Sa, 22.09. 2:00 12.4° C wolkig
Ortszeit Temperatur Wetter
So, 23.09. 23:00 12.3° C leicht bewölkt
So, 23.09. 22:50 12.3° C leicht bewölkt
So, 23.09. 22:40 12.5° C wolkig
So, 23.09. 22:30 12.8° C wolkig
So, 23.09. 22:20 12.8° C wolkig
So, 23.09. 22:10 12.8° C wolkig
So, 23.09. 22:00 13.3° C bedeckt
So, 23.09. 21:30 13.4° C bewölkt
So, 23.09. 21:00 13.8° C Sprühregen
So, 23.09. 20:30 14.8° C bewölkt
So, 23.09. 20:00 16.3° C Regen
Ortszeit Relative Feuchte Sichtweite
So, 23.09. 20:00 91% 70 km
So, 23.09. 14:00 67% 35 km
So, 23.09. 8:00 87% 70 km
So, 23.09. 2:00 87% 11 km
Sa, 22.09. 20:00 53% 55 km
Sa, 22.09. 14:00 46% 25 km
Sa, 22.09. 8:00 86% 35 km
Sa, 22.09. 2:00 82% 40 km
Ortszeit Relative Feuchte Sichtweite
So, 23.09. 23:00 78% 70 km
So, 23.09. 22:50 78% -
So, 23.09. 22:40 76% -
So, 23.09. 22:30 76% 70 km
So, 23.09. 22:20 76% -
So, 23.09. 22:10 77% -
So, 23.09. 22:00 76% 70 km
So, 23.09. 21:30 79% 70 km
So, 23.09. 21:00 78% 70 km
So, 23.09. 20:30 82% 70 km
So, 23.09. 20:00 91% 70 km
Ortszeit Niederschlagsmenge Niederschlagsart
So, 23.09. 20:00 15 l/m2 in 12 Std. Regenschauer
So, 23.09. 14:00 0.1 l/m2 in 6 Std. Regen
So, 23.09. 8:00 2 l/m2 in 12 Std. Regen
So, 23.09. 2:00 0.3 l/m2 in 6 Std. Regen
Sa, 22.09. 20:00 0.1 l/m2 in 12 Std. Regen
Sa, 22.09. 14:00 0.0 l/m2 in 6 Std. -
Sa, 22.09. 8:00 0.0 l/m2 in 12 Std. -
Sa, 22.09. 2:00 0.0 l/m2 in 6 Std. -
Ortszeit Niederschlagsmenge Niederschlagsart
So, 23.09. 23:00 0.0 l/m2 in 1 Std. Regen
So, 23.09. 22:50 keine Meldung -
So, 23.09. 22:40 keine Meldung -
So, 23.09. 22:30 0.0 l/m2 in 1 Std. -
So, 23.09. 22:20 keine Meldung -
So, 23.09. 22:10 keine Meldung -
So, 23.09. 22:00 0.1 l/m2 in 1 Std. Regen
So, 23.09. 21:30 0.1 l/m2 in 1 Std. Schneeregen
So, 23.09. 21:00 0.1 l/m2 in 1 Std. Regen
So, 23.09. 20:30 0.1 l/m2 in 1 Std. Schneeregen
So, 23.09. 20:00 1.7 l/m2 in 1 Std. Regenschauer
Ortszeit Stärke Spitze Richtung
km/h Bft. km/h Grad Sektor
So, 23.09. 20:00 14 3 79 240° SW
So, 23.09. 14:00 40 6 61 230° SW
So, 23.09. 8:00 22 4 43 230° SW
So, 23.09. 2:00 7 2 29 140° SO
Sa, 22.09. 20:00 2 1 35 10° N
Sa, 22.09. 14:00 19 3 31 230° SW
Sa, 22.09. 8:00 4 1 25 190° S
Sa, 22.09. 2:00 11 2 31 210° SW
Ortszeit Stärke Spitze Richtung
km/h Bft. km/h Grad Sektor
So, 23.09. 23:00 11 2 22 300° NW
So, 23.09. 22:50 11 2 - 300° NW
So, 23.09. 22:40 11 2 - 310° NW
So, 23.09. 22:30 13 3 22 330° NW
So, 23.09. 22:20 13 3 - 330° NW
So, 23.09. 22:10 13 3 - 330° NW
So, 23.09. 22:00 14 3 32 320° NW
So, 23.09. 21:30 14 3 32 320° NW
So, 23.09. 21:00 19 3 50 340° N
So, 23.09. 20:30 22 4 43 320° NW
So, 23.09. 20:00 14 3 40 240° SW
Ortszeit Untergrenze Bedeckung Gattung
total tief tief mittel hoch
So, 23.09. 20:00 750 m 7/8 7/8 - - -
So, 23.09. 14:00 1020 m 7/8 7/8 - - -
So, 23.09. 8:00 840 m 8/8 8/8 - - -
So, 23.09. 2:00 1380 m 7/8 7/8 - - -
Sa, 22.09. 20:00 2400 m 8/8 8/8 - - -
Sa, 22.09. 14:00 1380 m 6/8 - - - -
Sa, 22.09. 8:00 7800 m 7/8 0/8 - - -
Sa, 22.09. 2:00 8400 m 8/8 0/8 - - -
Ortszeit Bedeckungsgrad in Achtel und Wolkenuntergrenze
So, 23.09. 23:00 2(900m) 3(1500m)
So, 23.09. 22:50 2(900m) 3(1500m)
So, 23.09. 22:40 4(900m) 5(1500m) 5(4500m)
So, 23.09. 22:30 4(870m) 6(3900m) 7(4500m)
So, 23.09. 22:20 4(870m) 6(3900m) 7(4500m)
So, 23.09. 22:10 4(1500m) 7(4500m)
So, 23.09. 22:00 2(960m) 8(1320m) 7(4800m)
So, 23.09. 21:30 2(780m) 7(1290m) 7(3600m)
So, 23.09. 21:00 2(810m) 7(1290m) 7(3600m)
So, 23.09. 20:30 2(750m) 6(1110m) 7(2700m)
So, 23.09. 20:00 3(750m) 4(1500m) 7(2700m)
Ortszeit Luftdruck NN (hPa) Tendenz (hPa in 3 Std.)
So, 23.09. 20:00 1011 + 4,6
So, 23.09. 14:00 1011 - 2,6
So, 23.09. 8:00 1014 - 2,2
So, 23.09. 2:00 1020 - 1,0
Sa, 22.09. 20:00 1021 - 0,7
Sa, 22.09. 14:00 1023 - 1,4
Sa, 22.09. 8:00 1024 + 0,8
Sa, 22.09. 2:00 1022 + 1,9
Ortszeit Luftdruck NN (hPa) Tendenz (hPa in 3 Std.)
So, 23.09. 23:00 1021 + 9,3
So, 23.09. 22:50 1021 keine Meldung
So, 23.09. 22:40 1020 keine Meldung
So, 23.09. 22:30 1020 + 9,4
So, 23.09. 22:20 1020 keine Meldung
So, 23.09. 22:10 1019 keine Meldung
So, 23.09. 22:00 1018 + 9,0
So, 23.09. 21:30 1017 + 8,6
So, 23.09. 21:00 1016 + 9,0
So, 23.09. 20:30 1014 + 7,1
So, 23.09. 20:00 1011 + 4,6
Ortszeit Schneehöhe (cm)
So, 23.09. 20:00 -
So, 23.09. 14:00 -
So, 23.09. 8:00 -
So, 23.09. 2:00 -
Sa, 22.09. 20:00 -
Sa, 22.09. 14:00 -
Sa, 22.09. 8:00 -
Sa, 22.09. 2:00 -
Ortszeit Schneehöhe (cm)
So, 23.09. 23:00 -
So, 23.09. 22:50 -
So, 23.09. 22:40 -
So, 23.09. 22:30 -
So, 23.09. 22:20 -
So, 23.09. 22:10 -
So, 23.09. 22:00 -
So, 23.09. 21:30 -
So, 23.09. 21:00 -
So, 23.09. 20:30 -
So, 23.09. 20:00 -
Link zu dieser Seite / Seite empfehlen

Das Wetter in ...